Latest Weather Observations for Mount Buller

IDV60801

Issued at 4:02 pm EST Wednesday 2 September 2015 (issued every 30 minutes, with the page automatically refreshed every 10 minutes)

About weather observations | Map of weather stations | Latest weather observations for VIC | Other Formats
Station Details ID: 083024 Name: MOUNT BULLER Lat: -37.15 Lon: 146.44 Height: 1707.0 m
Data from the previous 72 hours. | See also: Recent months at Mount Buller
Date/Time
EST
Temp
°C
App
Temp
°C
Dew
Point
Rel
Hum
%
Delta-T
°C
Wind Press
QNH
hPa
Press
MSL
hPa
Rain
since 9 am
mm
Dir
 
Spd
km/h
Gust
km/h
Spd
kts
Gust
kts
02/04:00pm 2.8 -3.2 -1.7 72 1.8 NNE 20 28 11 15 - - 0.0
02/03:30pm 3.8 -1.7 -2.4 64 2.5 N 17 24 9 13 - - 0.0
02/03:00pm 3.2 -3.2 -1.5 71 1.9 NE 22 30 12 16 - - 0.0
02/02:30pm 3.1 -4.5 -1.8 70 2.0 NNE 28 35 15 19 - - 0.0
02/02:00pm 3.3 -3.4 -1.4 71 1.9 NNE 24 35 13 19 - - 0.0
02/01:30pm 3.2 -4.4 -2.1 68 2.1 NNE 28 37 15 20 - - 0.0
02/01:00pm 3.4 -4.2 -2.5 65 2.3 NNE 28 35 15 19 - - 0.0
02/12:30pm 3.0 -4.3 -5.9 52 3.4 NNE 24 35 13 19 - - 0.0
02/12:00pm 2.9 -2.2 -2.0 70 1.9 N 15 24 8 13 - - 0.0
02/11:30am 3.6 -2.1 -3.4 60 2.7 NNE 17 22 9 12 - - 0.0
02/11:00am 2.7 -3.4 -2.4 69 2.0 NNE 20 32 11 17 - - 0.0
02/10:30am 2.7 -3.6 -3.6 63 2.4 N 20 26 11 14 - - 0.0
02/10:00am 1.9 -5.5 -7.1 51 3.2 N 24 32 13 17 - - 0.0
02/09:30am 2.1 -4.3 -7.2 50 3.3 N 19 26 10 14 - - 0.0
02/09:00am 2.5 -3.5 -7.1 49 3.5 N 17 22 9 12 - - 0.0
02/08:30am 2.6 -5.5 -11.7 34 4.6 NNW 26 32 14 17 - - 0.0
02/08:00am 1.8 -4.8 -9.1 44 3.7 NNW 19 26 10 14 - - 0.0
02/07:30am 1.4 -4.9 -10.7 40 3.9 NNW 17 22 9 12 - - 0.0
02/07:00am 1.2 -4.5 -7.1 54 2.9 NNW 15 17 8 9 - - 0.0
02/06:30am -0.2 -5.6 -4.4 73 1.5 NNW 15 19 8 10 - - 0.0
02/06:00am 0.6 -4.6 -6.7 58 2.5 NW 13 17 7 9 - - 0.0
02/05:30am 0.9 -6.2 -13.5 33 4.2 NW 20 26 11 14 - - 0.0
02/05:00am 0.8 -4.4 -5.8 61 2.4 NW 13 15 7 8 - - 0.0
02/04:30am 0.5 -5.8 -9.8 46 3.3 NW 17 20 9 11 - - 0.0
02/04:00am 0.6 -6.4 -14.5 31 4.3 NW 19 26 10 14 - - 0.0
02/03:30am 1.1 -5.5 -15.8 27 4.7 NW 17 20 9 11 - - 0.0
02/03:00am -0.8 -7.8 -12.4 41 3.3 NW 20 24 11 13 - - 0.0
02/02:30am -0.6 -7.8 -15.2 32 3.9 NW 20 24 11 13 - - 0.0
02/02:00am -0.2 -7.6 -19.3 22 4.7 NW 20 24 11 13 - - 0.0
02/01:30am 0.0 -7.2 -19.7 21 4.8 NW 19 24 10 13 - - 0.0
02/01:00am 0.4 -6.9 -18.8 22 4.8 NW 20 24 11 13 - - 0.0
02/12:30am 0.4 -6.8 -19.9 20 5.0 NNW 19 20 10 11 - - 0.0
02/12:00am -0.5 -7.6 -17.2 27 4.3 NW 19 20 10 11 - - 0.0
 
Date/Time
EST
Temp
°C
App
Temp
°C
Dew
Point
Rel
Hum
%
Delta-T
°C
Wind Press
QNH
hPa
Press
MSL
hPa
Rain
since 9 am
mm
Dir
 
Spd
km/h
Gust
km/h
Spd
kts
Gust
kts
01/11:30pm -0.5 -7.3 -12.1 41 3.4 NNW 19 20 10 11 - - 0.0
01/11:00pm -0.1 -8.0 -14.8 32 4.1 NNW 24 30 13 16 - - 0.0
01/10:30pm 0.3 -6.6 -10.5 44 3.4 NNW 20 26 11 14 - - 0.0
01/10:00pm 0.4 -7.1 -8.0 53 2.8 NNW 24 33 13 18 - - 0.0
01/09:30pm -0.2 -5.9 -3.4 79 1.2 N 17 24 9 13 - - 0.0
01/09:00pm -0.1 -4.8 -2.0 87 0.7 NNW 13 17 7 9 - - 0.0
01/08:30pm 0.8 -4.0 -2.2 80 1.2 NNW 13 15 7 8 - - 0.0
01/08:00pm 1.2 -3.7 -3.3 72 1.8 NNW 13 17 7 9 - - 0.0
01/07:30pm 1.1 -2.8 -1.5 83 1.0 NNW 9 13 5 7 - - 0.0
01/07:00pm 1.2 -3.1 -5.0 63 2.3 NNW 9 13 5 7 - - 0.0
01/06:30pm 0.1 -3.0 0.1 100 0.0 NW 6 9 3 5 - - 0.0
01/06:00pm 0.5 -2.3 -0.4 94 0.4 NW 4 7 2 4 - - 0.0
01/05:30pm 1.4 -1.3 0.1 91 0.5 ENE 4 7 2 4 - - 0.0
01/05:00pm 1.4 -1.8 0.7 95 0.3 NNW 7 9 4 5 - - 0.0
01/04:30pm 1.8 -2.1 1.1 95 0.3 NW 11 15 6 8 - - 0.0
01/04:00pm 2.6 -0.9 1.3 91 0.6 NNW 9 13 5 7 - - 0.0
01/03:30pm 3.3 0.4 1.5 88 0.8 N 6 9 3 5 - - 0.0
01/03:00pm 3.8 1.2 1.2 83 1.1 ENE 4 7 2 4 - - 0.0
01/02:30pm 4.1 1.3 2.1 87 0.9 N 6 9 3 5 - - 0.0
01/02:00pm 4.9 2.7 1.2 77 1.6 ENE 2 6 1 3 - - 0.0
01/01:30pm 3.5 1.5 0.0 78 1.5 CALM 0 4 0 2 - - 0.0
01/01:00pm 4.0 0.9 0.0 75 1.7 NNE 6 11 3 6 - - 0.0
01/12:30pm 4.5 1.6 -1.3 66 2.4 ENE 4 7 2 4 - - 0.0
01/12:00pm 4.0 0.7 -1.4 68 2.2 ENE 6 11 3 6 - - 0.0
01/11:30am 4.7 2.2 -4.0 53 3.4 CALM 0 4 0 2 - - 0.0
01/11:00am 4.4 0.5 -6.2 46 3.9 W 6 13 3 7 - - 0.0
01/10:30am 3.5 -1.1 -16.7 21 5.8 WSW 6 9 3 5 - - 0.0
01/10:00am 2.9 -2.4 -19.0 18 5.8 WSW 9 17 5 9 - - 0.0
01/09:30am 3.0 -2.4 -24.5 11 6.4 SW 9 11 5 6 - - 0.0
01/09:00am 2.3 -3.4 -21.6 15 5.9 SW 11 15 6 8 - - 0.0
01/08:30am 2.4 -3.8 -24.0 12 6.1 SW 13 15 7 8 - - 0.0
01/08:00am 1.8 -4.7 -23.6 13 5.9 SW 15 17 8 9 - - 0.0
01/07:30am 1.7 -4.9 -26.6 10 6.1 SW 15 17 8 9 - - 0.0
01/07:00am 1.3 -5.7 -26.9 10 5.9 SW 17 19 9 10 - - 0.0
01/06:30am 0.9 -6.1 -26.2 11 5.7 SW 17 19 9 10 - - 0.0
01/06:00am -0.6 -7.2 -16.0 30 4.1 SW 17 20 9 11 - - 0.0
01/05:30am -0.1 -6.8 -17.3 26 4.4 SW 17 20 9 11 - - 0.0
01/05:00am -0.2 -6.8 -15.2 31 4.1 WSW 17 20 9 11 - - 0.0
01/04:30am -0.2 -6.8 -14.5 33 4.0 WSW 17 19 9 10 - - 0.0
01/04:00am 0.0 -7.0 -14.7 32 4.1 WSW 19 20 10 11 - - 0.0
01/03:30am 0.3 -6.5 -12.7 37 3.8 WSW 19 20 10 11 - - 0.0
01/03:00am -0.7 -7.3 -9.6 51 2.8 W 19 22 10 12 - - 0.0
01/02:30am -1.5 -8.1 -9.1 56 2.3 W 19 24 10 13 - - 0.0
01/02:00am -1.1 -7.1 -3.1 86 0.7 WNW 19 24 10 13 - - 0.0
01/01:30am -0.1 -6.2 -13.7 35 3.9 W 15 19 8 10 - - 0.0
01/01:00am 0.2 -5.5 -12.7 37 3.8 W 13 17 7 9 - - 0.0
01/12:30am -1.5 -7.1 -6.1 71 1.5 W 15 19 8 10 - - 0.0
01/12:00am -1.1 -6.7 -6.2 68 1.7 W 15 19 8 10 - - 0.0
 
Date/Time
EST
Temp
°C
App
Temp
°C
Dew
Point
Rel
Hum
%
Delta-T
°C
Wind Press
QNH
hPa
Press
MSL
hPa
Rain
since 9 am
mm
Dir
 
Spd
km/h
Gust
km/h
Spd
kts
Gust
kts
31/11:30pm -0.7 -6.6 -9.3 52 2.7 W 15 17 8 9 - - 0.0
31/11:00pm -0.1 -5.8 -7.6 57 2.5 W 15 17 8 9 - - 0.0
31/10:30pm -1.2 -7.1 -5.4 73 1.4 WNW 17 19 9 10 - - 0.0
31/10:00pm 0.1 -5.9 -6.5 61 2.3 W 17 20 9 11 - - 0.0
31/09:30pm 0.7 -4.3 -7.8 53 2.9 W 11 13 6 7 - - 0.0
31/09:00pm -0.9 -3.9 -2.2 91 0.4 NNW 4 6 2 3 - - 0.0
31/08:30pm -0.4 -3.1 -2.8 84 0.9 E 2 2 1 1 - - 0.0
31/08:00pm -0.9 -5.2 -1.6 95 0.2 SSW 11 13 6 7 - - 0.0
31/07:30pm -1.5 -5.9 -2.5 93 0.3 S 11 13 6 7 - - 0.0
31/07:00pm -0.7 -5.0 -2.0 91 0.5 SSW 11 13 6 7 - - 0.0
31/06:30pm -0.6 -5.3 -2.0 90 0.5 SSW 13 15 7 8 - - 0.0
31/06:00pm -0.3 -5.0 -1.6 91 0.5 SW 13 20 7 11 - - 0.0
31/05:30pm 0.2 -4.5 -1.9 86 0.8 SSW 13 20 7 11 - - 0.0
31/05:00pm 1.0 -3.7 -1.9 81 1.2 SW 13 17 7 9 - - 0.0
31/04:30pm 1.5 -2.8 -1.7 79 1.3 S 11 15 6 8 - - 0.0
31/04:00pm 1.8 -1.8 -1.8 77 1.4 SSW 7 11 4 6 - - 0.0
31/03:30pm 2.0 -1.6 -1.8 76 1.5 SSW 7 9 4 5 - - 0.0
31/03:00pm 2.4 -1.0 -2.1 72 1.8 SSW 6 7 3 4 - - 0.0
31/02:30pm 2.1 -1.3 -2.0 74 1.6 SSW 6 9 3 5 - - 0.0
31/02:00pm 2.6 -0.8 -2.3 70 1.9 S 6 9 3 5 - - 0.0
31/01:30pm 2.4 -0.8 -3.1 67 2.1 SSW 4 7 2 4 - - 0.0
31/01:00pm 3.3 0.0 -4.6 56 3.0 SSE 4 6 2 3 - - 0.0
31/12:30pm 3.5 0.3 -7.3 45 4.0 SE 2 6 1 3 - - 0.0
31/12:00pm 4.7 1.7 -5.6 47 3.8 SE 2 6 1 3 - - 0.0
31/11:30am 3.4 -0.1 -6.0 50 3.4 NNE 4 7 2 4 - - 0.0
31/11:00am 3.5 0.3 -7.3 45 4.0 NNE 2 7 1 4 - - 0.0
31/10:30am 3.3 -0.1 -16.3 22 5.6 CALM 0 2 0 1 - - 0.0
31/10:00am 2.3 -1.8 -13.9 29 4.9 SSE 4 6 2 3 - - 0.0
31/09:30am 1.9 -2.3 -17.5 22 5.2 S 4 7 2 4 - - 0.0
31/09:00am 1.9 -1.7 -19.9 18 5.5 CALM 0 0 0 0 - - 0.2
31/08:30am 1.4 -3.6 -22.4 15 5.6 SSW 7 7 4 4 - - 0.2
31/08:00am 0.4 -4.7 -24.8 13 5.4 S 7 9 4 5 - - 0.2
31/07:30am -0.2 -5.7 -26.1 12 5.3 SSW 9 11 5 6 - - 0.2
31/07:00am 0.6 -5.3 -31.2 7 5.9 SSW 11 13 6 7 - - 0.2
31/06:30am 0.0 -5.9 -30.3 8 5.7 SSW 11 13 6 7 - - 0.2
31/06:00am -1.0 -7.5 -20.5 21 4.5 SSW 15 17 8 9 - - 0.2
31/05:30am -2.3 -8.5 -14.3 39 3.2 SSW 15 17 8 9 - - 0.2
31/05:00am -1.0 -7.0 -18.0 26 4.2 SSW 13 15 7 8 - - 0.2
31/04:30am -0.4 -7.6 -19.0 23 4.6 SSW 19 22 10 12 - - 0.2
31/04:00am -1.0 -8.1 -17.6 27 4.2 SSW 19 20 10 11 - - 0.2
31/03:30am -0.4 -7.5 -17.5 26 4.4 SSW 19 22 10 12 - - 0.2
31/03:00am -0.8 -6.6 -15.0 33 3.8 SSW 13 15 7 8 - - 0.2
31/02:30am -0.8 -7.4 -15.8 31 4.0 SSW 17 19 9 10 - - 0.2
31/02:00am -0.8 -6.9 -12.4 41 3.3 SW 15 19 8 10 - - 0.2
31/01:30am -0.6 -5.6 -14.1 35 3.7 SW 9 13 5 7 - - 0.2
31/01:00am -0.2 -5.2 -13.1 37 3.7 SSW 9 11 5 6 - - 0.2
31/12:30am -0.3 -4.8 -11.9 41 3.4 SSW 7 7 4 4 - - 0.2
31/12:00am 0.2 -4.4 -12.7 37 3.8 SSW 7 9 4 5 - - 0.2
 
Date/Time
EST
Temp
°C
App
Temp
°C
Dew
Point
Rel
Hum
%
Delta-T
°C
Wind Press
QNH
hPa
Press
MSL
hPa
Rain
since 9 am
mm
Dir
 
Spd
km/h
Gust
km/h
Spd
kts
Gust
kts
30/11:30pm -0.2 -5.4 -10.7 45 3.2 SW 11 13 6 7 - - 0.2
30/11:00pm 0.2 -4.1 -10.9 43 3.4 WSW 6 7 3 4 - - 0.2
30/10:30pm -0.1 -4.6 -11.1 43 3.3 WSW 7 11 4 6 - - 0.2
30/10:00pm -0.2 -4.0 -9.6 49 3.0 W 4 6 2 3 - - 0.2
30/09:30pm 0.0 -4.1 -8.2 54 2.7 WSW 6 11 3 6 - - 0.2
30/09:00pm -1.4 -5.2 -5.2 75 1.3 SSW 6 9 3 5 - - 0.2
30/08:30pm -1.7 -5.2 -3.0 91 0.4 SSW 6 13 3 7 - - 0.2
30/08:00pm -2.1 -6.9 -2.4 98 0.0 S 13 15 7 8 - - 0.2
30/07:30pm -1.9 -5.9 -2.3 97 0.1 S 9 11 5 6 - - 0.2
30/07:00pm -1.6 -5.6 -2.0 97 0.1 S 9 11 5 6 - - 0.2
30/06:30pm -1.5 -5.9 -2.1 96 0.2 S 11 13 6 7 - - 0.2
30/06:00pm -1.2 -5.9 -2.0 94 0.2 S 13 15 7 8 - - 0.2
30/05:30pm -0.7 -5.4 -1.8 92 0.4 S 13 17 7 9 - - 0.2
30/05:00pm 0.0 -4.6 -1.3 91 0.5 SSW 13 15 7 8 - - 0.2
30/04:30pm 0.4 -3.7 -0.3 95 0.3 S 11 13 6 7 - - 0.2

Other Formats:

Comma delimited format used in spreadsheet applications
http://www.bom.gov.au/fwo/IDV60801/IDV60801.94894.axf

JavaScript Object Notation format (JSON) in row-major order
http://www.bom.gov.au/fwo/IDV60801/IDV60801.94894.json